sensor_id;sensor_type;location;lat;lon;timestamp;pressure;altitude;pressure_sealevel;temperature;humidity
6668;BME280;3370;47.712;9.082;2023-04-30T00:01:02;97184.72;;;11.70;84.22
6668;BME280;3370;47.712;9.082;2023-04-30T00:03:28;97187.84;;;11.58;83.85
6668;BME280;3370;47.712;9.082;2023-04-30T00:05:54;97185.75;;;11.66;83.92
6668;BME280;3370;47.712;9.082;2023-04-30T00:08:20;97184.69;;;11.53;85.34
6668;BME280;3370;47.712;9.082;2023-04-30T00:10:46;97188.03;;;11.55;84.80
6668;BME280;3370;47.712;9.082;2023-04-30T00:13:12;97190.88;;;11.49;84.37
6668;BME280;3370;47.712;9.082;2023-04-30T00:15:39;97189.91;;;11.51;83.73
6668;BME280;3370;47.712;9.082;2023-04-30T00:18:05;97184.94;;;11.47;85.63
6668;BME280;3370;47.712;9.082;2023-04-30T00:20:32;97185.25;;;11.41;86.81
6668;BME280;3370;47.712;9.082;2023-04-30T00:22:59;97178.22;;;11.44;87.51
6668;BME280;3370;47.712;9.082;2023-04-30T00:25:25;97189.84;;;11.70;85.43
6668;BME280;3370;47.712;9.082;2023-04-30T00:27:51;97181.88;;;11.58;85.70
6668;BME280;3370;47.712;9.082;2023-04-30T00:30:17;97182.63;;;11.60;86.16
6668;BME280;3370;47.712;9.082;2023-04-30T00:32:43;97182.63;;;11.60;85.74
6668;BME280;3370;47.712;9.082;2023-04-30T00:35:10;97179.38;;;11.56;86.38
6668;BME280;3370;47.712;9.082;2023-04-30T00:37:36;97179.53;;;11.53;86.19
6668;BME280;3370;47.712;9.082;2023-04-30T00:40:03;97169.38;;;11.50;86.30
6668;BME280;3370;47.712;9.082;2023-04-30T00:42:29;97165.34;;;11.44;86.84
6668;BME280;3370;47.712;9.082;2023-04-30T00:44:54;97161.78;;;11.47;86.05
6668;BME280;3370;47.712;9.082;2023-04-30T00:47:20;97167.56;;;11.52;85.80
6668;BME280;3370;47.712;9.082;2023-04-30T00:49:46;97169.56;;;11.45;85.96
6668;BME280;3370;47.712;9.082;2023-04-30T00:52:13;97158.81;;;11.37;86.44
6668;BME280;3370;47.712;9.082;2023-04-30T00:54:39;97154.56;;;11.36;86.73
6668;BME280;3370;47.712;9.082;2023-04-30T00:57:06;97155.13;;;11.43;86.66
6668;BME280;3370;47.712;9.082;2023-04-30T00:59:34;97151.78;;;11.41;85.98
6668;BME280;3370;47.712;9.082;2023-04-30T01:02:00;97153.38;;;11.43;85.21
6668;BME280;3370;47.712;9.082;2023-04-30T01:04:27;97150.31;;;11.35;86.09
6668;BME280;3370;47.712;9.082;2023-04-30T01:06:53;97142.94;;;11.27;86.40
6668;BME280;3370;47.712;9.082;2023-04-30T01:09:19;97144.63;;;11.28;85.77
6668;BME280;3370;47.712;9.082;2023-04-30T01:15:26;97146.69;;;11.20;86.35
6668;BME280;3370;47.712;9.082;2023-04-30T01:18:22;97132.13;;;11.21;86.17
6668;BME280;3370;47.712;9.082;2023-04-30T01:20:56;97131.41;;;11.17;86.29
6668;BME280;3370;47.712;9.082;2023-04-30T01:24:17;97133.22;;;11.15;86.62
6668;BME280;3370;47.712;9.082;2023-04-30T01:29:51;97132.59;;;11.10;87.20
6668;BME280;3370;47.712;9.082;2023-04-30T01:32:17;97129.28;;;11.08;86.90
6668;BME280;3370;47.712;9.082;2023-04-30T01:34:43;97133.91;;;11.00;87.63
6668;BME280;3370;47.712;9.082;2023-04-30T01:37:16;97144.22;;;11.00;87.55
6668;BME280;3370;47.712;9.082;2023-04-30T01:44:23;97141.00;;;10.94;88.45
6668;BME280;3370;47.712;9.082;2023-04-30T01:46:29;97139.41;;;10.92;88.64
6668;BME280;3370;47.712;9.082;2023-04-30T01:49:18;97147.13;;;10.92;88.95
6668;BME280;3370;47.712;9.082;2023-04-30T01:51:54;97141.00;;;10.94;89.04
6668;BME280;3370;47.712;9.082;2023-04-30T01:54:54;97135.84;;;10.94;89.65
6668;BME280;3370;47.712;9.082;2023-04-30T01:57:38;97143.81;;;10.90;90.33
6668;BME280;3370;47.712;9.082;2023-04-30T02:00:07;97134.34;;;10.90;90.06
6668;BME280;3370;47.712;9.082;2023-04-30T02:02:36;97137.03;;;10.87;90.15
6668;BME280;3370;47.712;9.082;2023-04-30T02:05:02;97140.38;;;10.89;90.20
6668;BME280;3370;47.712;9.082;2023-04-30T02:07:40;97137.91;;;10.88;90.61
6668;BME280;3370;47.712;9.082;2023-04-30T02:10:07;97141.06;;;10.93;89.94
6668;BME280;3370;47.712;9.082;2023-04-30T02:12:34;97145.69;;;10.86;90.68
6668;BME280;3370;47.712;9.082;2023-04-30T02:15:01;97142.47;;;10.81;91.55
6668;BME280;3370;47.712;9.082;2023-04-30T02:17:27;97150.47;;;10.75;91.91
6668;BME280;3370;47.712;9.082;2023-04-30T02:19:53;97144.94;;;10.64;92.76
6668;BME280;3370;47.712;9.082;2023-04-30T02:22:18;97146.09;;;10.57;93.44
6668;BME280;3370;47.712;9.082;2023-04-30T02:24:44;97149.06;;;10.47;93.77
6668;BME280;3370;47.712;9.082;2023-04-30T02:27:10;97138.16;;;10.42;94.24
6668;BME280;3370;47.712;9.082;2023-04-30T02:29:36;97144.69;;;10.49;94.04
6668;BME280;3370;47.712;9.082;2023-04-30T02:32:01;97143.03;;;10.48;93.54
6668;BME280;3370;47.712;9.082;2023-04-30T02:34:27;97139.44;;;10.52;92.99
6668;BME280;3370;47.712;9.082;2023-04-30T02:36:53;97139.84;;;10.43;93.56
6668;BME280;3370;47.712;9.082;2023-04-30T02:39:19;97142.06;;;10.30;94.70
6668;BME280;3370;47.712;9.082;2023-04-30T02:41:45;97142.94;;;10.29;94.53
6668;BME280;3370;47.712;9.082;2023-04-30T02:44:11;97140.81;;;10.18;95.72
6668;BME280;3370;47.712;9.082;2023-04-30T02:46:37;97135.13;;;10.12;96.71
6668;BME280;3370;47.712;9.082;2023-04-30T02:49:02;97144.44;;;10.14;96.81
6668;BME280;3370;47.712;9.082;2023-04-30T02:51:28;97143.84;;;10.08;97.20
6668;BME280;3370;47.712;9.082;2023-04-30T02:53:54;97139.41;;;10.11;96.14
6668;BME280;3370;47.712;9.082;2023-04-30T02:56:20;97143.50;;;10.17;94.86
6668;BME280;3370;47.712;9.082;2023-04-30T02:58:46;97143.03;;;10.07;94.66
6668;BME280;3370;47.712;9.082;2023-04-30T03:01:13;97144.00;;;10.05;95.64
6668;BME280;3370;47.712;9.082;2023-04-30T03:03:38;97140.94;;;9.95;95.92
6668;BME280;3370;47.712;9.082;2023-04-30T03:06:04;97143.72;;;9.90;97.28
6668;BME280;3370;47.712;9.082;2023-04-30T03:08:30;97139.94;;;9.99;96.73
6668;BME280;3370;47.712;9.082;2023-04-30T03:10:56;97148.81;;;9.92;97.44
6668;BME280;3370;47.712;9.082;2023-04-30T03:13:22;97141.81;;;9.95;98.55
6668;BME280;3370;47.712;9.082;2023-04-30T03:15:59;97141.72;;;9.97;98.71
6668;BME280;3370;47.712;9.082;2023-04-30T03:18:27;97139.28;;;9.94;99.49
6668;BME280;3370;47.712;9.082;2023-04-30T03:20:53;97139.09;;;9.98;98.96
6668;BME280;3370;47.712;9.082;2023-04-30T03:23:19;97138.38;;;9.95;99.06
6668;BME280;3370;47.712;9.082;2023-04-30T03:25:45;97145.16;;;9.97;99.31
6668;BME280;3370;47.712;9.082;2023-04-30T03:28:10;97139.94;;;9.99;99.43
6668;BME280;3370;47.712;9.082;2023-04-30T03:30:36;97142.38;;;10.02;99.55
6668;BME280;3370;47.712;9.082;2023-04-30T03:33:02;97138.84;;;10.05;99.60
6668;BME280;3370;47.712;9.082;2023-04-30T03:35:31;97141.53;;;10.02;99.71
6668;BME280;3370;47.712;9.082;2023-04-30T03:37:59;97140.66;;;10.03;100.00
6668;BME280;3370;47.712;9.082;2023-04-30T03:40:24;97139.69;;;10.05;99.96
6668;BME280;3370;47.712;9.082;2023-04-30T03:42:50;97134.53;;;10.05;99.48
6668;BME280;3370;47.712;9.082;2023-04-30T03:45:16;97127.47;;;10.10;99.54
6668;BME280;3370;47.712;9.082;2023-04-30T03:47:42;97130.00;;;10.12;98.80
6668;BME280;3370;47.712;9.082;2023-04-30T03:50:09;97130.94;;;10.09;98.96
6668;BME280;3370;47.712;9.082;2023-04-30T03:52:35;97130.19;;;10.07;98.64
6668;BME280;3370;47.712;9.082;2023-04-30T03:55:04;97130.44;;;10.01;99.14
6668;BME280;3370;47.712;9.082;2023-04-30T03:57:31;97129.28;;;10.08;98.21
6668;BME280;3370;47.712;9.082;2023-04-30T03:59:57;97125.94;;;10.06;98.17
6668;BME280;3370;47.712;9.082;2023-04-30T04:02:23;97125.81;;;10.09;97.85
6668;BME280;3370;47.712;9.082;2023-04-30T04:04:50;97127.22;;;10.16;97.06
6668;BME280;3370;47.712;9.082;2023-04-30T04:07:16;97124.66;;;10.16;96.42
6668;BME280;3370;47.712;9.082;2023-04-30T04:09:42;97121.13;;;10.19;96.29
6668;BME280;3370;47.712;9.082;2023-04-30T04:12:08;97126.28;;;10.19;95.77
6668;BME280;3370;47.712;9.082;2023-04-30T04:14:34;97131.41;;;10.19;95.32
6668;BME280;3370;47.712;9.082;2023-04-30T04:17:00;97129.44;;;10.24;94.96
6668;BME280;3370;47.712;9.082;2023-04-30T04:19:27;97130.31;;;10.25;94.51
6668;BME280;3370;47.712;9.082;2023-04-30T04:21:52;97123.63;;;10.21;95.00
6668;BME280;3370;47.712;9.082;2023-04-30T04:24:18;97124.47;;;10.21;95.07
6668;BME280;3370;47.712;9.082;2023-04-30T04:26:44;97129.53;;;10.23;95.10
6668;BME280;3370;47.712;9.082;2023-04-30T04:29:10;97132.13;;;10.23;94.94
6668;BME280;3370;47.712;9.082;2023-04-30T04:31:37;97131.25;;;10.22;94.83
6668;BME280;3370;47.712;9.082;2023-04-30T04:34:04;97127.75;;;10.25;94.32
6668;BME280;3370;47.712;9.082;2023-04-30T04:36:30;97132.72;;;10.28;94.06
6668;BME280;3370;47.712;9.082;2023-04-30T04:38:58;97133.66;;;10.27;94.21
6668;BME280;3370;47.712;9.082;2023-04-30T04:41:33;97130.25;;;10.26;94.14
6668;BME280;3370;47.712;9.082;2023-04-30T04:44:03;97142.13;;;10.29;93.92
6668;BME280;3370;47.712;9.082;2023-04-30T04:46:33;97136.91;;;10.32;94.05
6668;BME280;3370;47.712;9.082;2023-04-30T04:48:59;97132.47;;;10.35;94.05
6668;BME280;3370;47.712;9.082;2023-04-30T04:51:25;97135.84;;;10.36;94.07
6668;BME280;3370;47.712;9.082;2023-04-30T04:53:51;97123.59;;;10.43;93.86
6668;BME280;3370;47.712;9.082;2023-04-30T04:56:17;97133.00;;;10.42;93.92
6668;BME280;3370;47.712;9.082;2023-04-30T04:58:43;97129.69;;;10.40;93.81
6668;BME280;3370;47.712;9.082;2023-04-30T05:01:09;97130.53;;;10.41;93.85
6668;BME280;3370;47.712;9.082;2023-04-30T05:03:35;97131.22;;;10.44;93.61
6668;BME280;3370;47.712;9.082;2023-04-30T05:06:05;97136.22;;;10.47;93.58
6668;BME280;3370;47.712;9.082;2023-04-30T05:08:30;97135.28;;;10.50;93.12
6668;BME280;3370;47.712;9.082;2023-04-30T05:10:56;97130.97;;;10.50;93.08
6668;BME280;3370;47.712;9.082;2023-04-30T05:13:22;97137.84;;;10.50;92.62
6668;BME280;3370;47.712;9.082;2023-04-30T05:15:51;97145.63;;;10.48;93.01
6668;BME280;3370;47.712;9.082;2023-04-30T05:18:18;97139.50;;;10.51;92.96
6668;BME280;3370;47.712;9.082;2023-04-30T05:20:44;97148.94;;;10.50;92.60
6668;BME280;3370;47.712;9.082;2023-04-30T05:23:10;97155.84;;;10.50;92.39
6668;BME280;3370;47.712;9.082;2023-04-30T05:25:36;97154.97;;;10.49;92.45
6668;BME280;3370;47.712;9.082;2023-04-30T05:28:02;97151.53;;;10.50;92.44
6668;BME280;3370;47.712;9.082;2023-04-30T05:30:28;97154.84;;;10.52;92.62
6668;BME280;3370;47.712;9.082;2023-04-30T05:32:54;97147.97;;;10.53;92.84
6668;BME280;3370;47.712;9.082;2023-04-30T05:35:21;97152.22;;;10.54;92.52
6668;BME280;3370;47.712;9.082;2023-04-30T05:37:47;97146.81;;;10.60;92.61
6668;BME280;3370;47.712;9.082;2023-04-30T05:40:13;97144.28;;;10.59;92.48
6668;BME280;3370;47.712;9.082;2023-04-30T05:42:40;97144.28;;;10.59;91.90
6668;BME280;3370;47.712;9.082;2023-04-30T05:45:09;97145.84;;;10.63;91.46
6668;BME280;3370;47.712;9.082;2023-04-30T05:47:36;97141.53;;;10.63;91.54
6668;BME280;3370;47.712;9.082;2023-04-30T05:50:02;97145.69;;;10.66;91.57
6668;BME280;3370;47.712;9.082;2023-04-30T05:52:28;97145.56;;;10.69;91.45
6668;BME280;3370;47.712;9.082;2023-04-30T05:54:54;97143.75;;;10.71;91.21
6668;BME280;3370;47.712;9.082;2023-04-30T05:57:21;97136.91;;;10.71;91.02
6668;BME280;3370;47.712;9.082;2023-04-30T05:59:47;97141.81;;;10.76;90.79
6668;BME280;3370;47.712;9.082;2023-04-30T06:02:12;97132.31;;;10.78;90.61
6668;BME280;3370;47.712;9.082;2023-04-30T06:04:38;97133.94;;;10.81;90.62
6668;BME280;3370;47.712;9.082;2023-04-30T06:07:04;97143.09;;;10.86;90.00
6668;BME280;3370;47.712;9.082;2023-04-30T06:09:30;97136.78;;;10.93;89.36
6668;BME280;3370;47.712;9.082;2023-04-30T06:11:56;97142.63;;;10.97;89.97
6668;BME280;3370;47.712;9.082;2023-04-30T06:14:22;97141.56;;;11.01;89.52
6668;BME280;3370;47.712;9.082;2023-04-30T06:16:48;97140.03;;;11.16;89.46
6668;BME280;3370;47.712;9.082;2023-04-30T06:19:14;97149.38;;;11.19;89.63
6668;BME280;3370;47.712;9.082;2023-04-30T06:21:40;97138.09;;;11.21;89.55
6668;BME280;3370;47.712;9.082;2023-04-30T06:24:08;97139.41;;;11.30;88.27
6668;BME280;3370;47.712;9.082;2023-04-30T06:26:34;97142.59;;;11.35;87.67
6668;BME280;3370;47.712;9.082;2023-04-30T06:29:00;97142.25;;;11.43;87.64
6668;BME280;3370;47.712;9.082;2023-04-30T06:31:26;97145.28;;;11.51;86.64
6668;BME280;3370;47.712;9.082;2023-04-30T06:33:52;97145.81;;;11.58;86.06
6668;BME280;3370;47.712;9.082;2023-04-30T06:36:17;97145.44;;;11.65;85.88
6668;BME280;3370;47.712;9.082;2023-04-30T06:38:45;97142.59;;;11.72;85.50
6668;BME280;3370;47.712;9.082;2023-04-30T06:41:11;97133.66;;;11.79;84.96
6668;BME280;3370;47.712;9.082;2023-04-30T06:43:37;97130.53;;;11.91;85.15
6668;BME280;3370;47.712;9.082;2023-04-30T06:46:03;97132.88;;;11.96;84.65
6668;BME280;3370;47.712;9.082;2023-04-30T06:48:31;97128.25;;;12.02;84.55
6668;BME280;3370;47.712;9.082;2023-04-30T06:50:57;97129.75;;;12.06;84.01
6668;BME280;3370;47.712;9.082;2023-04-30T06:53:23;97135.38;;;12.15;83.00
6668;BME280;3370;47.712;9.082;2023-04-30T06:55:49;97133.38;;;12.20;82.49
6668;BME280;3370;47.712;9.082;2023-04-30T06:58:15;97134.06;;;12.23;81.96
6668;BME280;3370;47.712;9.082;2023-04-30T07:00:42;97131.88;;;12.33;81.44
6668;BME280;3370;47.712;9.082;2023-04-30T07:03:07;97128.44;;;12.33;81.38
6668;BME280;3370;47.712;9.082;2023-04-30T07:05:33;97126.78;;;12.32;81.31
6668;BME280;3370;47.712;9.082;2023-04-30T07:08:01;97138.47;;;12.39;83.08
6668;BME280;3370;47.712;9.082;2023-04-30T07:10:28;97139.88;;;12.44;82.76
6668;BME280;3370;47.712;9.082;2023-04-30T07:12:54;97135.47;;;12.46;82.53
6668;BME280;3370;47.712;9.082;2023-04-30T07:15:21;97141.31;;;12.50;81.84
6668;BME280;3370;47.712;9.082;2023-04-30T07:17:46;97131.78;;;12.68;81.49
6668;BME280;3370;47.712;9.082;2023-04-30T07:20:13;97135.03;;;12.72;80.99
6668;BME280;3370;47.712;9.082;2023-04-30T07:22:42;97126.59;;;12.85;79.90
6668;BME280;3370;47.712;9.082;2023-04-30T07:25:13;97132.25;;;12.92;79.85
6668;BME280;3370;47.712;9.082;2023-04-30T07:27:39;97128.34;;;13.01;79.50
6668;BME280;3370;47.712;9.082;2023-04-30T07:30:06;97127.03;;;13.10;78.62
6668;BME280;3370;47.712;9.082;2023-04-30T07:32:35;97130.25;;;13.13;81.24
6668;BME280;3370;47.712;9.082;2023-04-30T07:35:02;97126.28;;;13.23;82.39
6668;BME280;3370;47.712;9.082;2023-04-30T07:37:28;97128.50;;;13.30;81.24
6668;BME280;3370;47.712;9.082;2023-04-30T07:39:55;97134.97;;;13.38;80.65
6668;BME280;3370;47.712;9.082;2023-04-30T07:42:21;97130.63;;;13.55;78.15
6668;BME280;3370;47.712;9.082;2023-04-30T07:44:47;97131.28;;;13.58;77.93
6668;BME280;3370;47.712;9.082;2023-04-30T07:47:13;97123.09;;;13.66;78.00
6668;BME280;3370;47.712;9.082;2023-04-30T07:49:39;97129.84;;;13.69;76.83
6668;BME280;3370;47.712;9.082;2023-04-30T07:52:05;97124.97;;;13.78;77.16
6668;BME280;3370;47.712;9.082;2023-04-30T07:54:35;97120.97;;;14.03;75.74
6668;BME280;3370;47.712;9.082;2023-04-30T07:57:04;97114.28;;;14.15;74.18
6668;BME280;3370;47.712;9.082;2023-04-30T07:59:30;97112.53;;;14.30;73.82
6668;BME280;3370;47.712;9.082;2023-04-30T08:01:56;97117.16;;;14.39;73.69
6668;BME280;3370;47.712;9.082;2023-04-30T08:04:22;97105.09;;;14.54;74.61
6668;BME280;3370;47.712;9.082;2023-04-30T08:06:47;97111.22;;;14.67;74.97
6668;BME280;3370;47.712;9.082;2023-04-30T08:09:13;97109.34;;;14.69;73.96
6668;BME280;3370;47.712;9.082;2023-04-30T08:11:40;97113.88;;;14.66;75.61
6668;BME280;3370;47.712;9.082;2023-04-30T08:14:06;97111.66;;;14.88;73.88
6668;BME280;3370;47.712;9.082;2023-04-30T08:16:32;97104.34;;;14.95;72.35
6668;BME280;3370;47.712;9.082;2023-04-30T08:18:58;97108.78;;;14.93;71.55
6668;BME280;3370;47.712;9.082;2023-04-30T08:21:25;97108.63;;;14.82;71.07
6668;BME280;3370;47.712;9.082;2023-04-30T08:23:53;97107.59;;;14.84;69.68
6668;BME280;3370;47.712;9.082;2023-04-30T08:26:19;97113.22;;;14.91;69.84
6668;BME280;3370;47.712;9.082;2023-04-30T08:28:45;97107.88;;;14.94;68.38
6668;BME280;3370;47.712;9.082;2023-04-30T08:31:11;97109.78;;;15.05;68.51
6668;BME280;3370;47.712;9.082;2023-04-30T08:33:37;97106.53;;;15.16;68.87
6668;BME280;3370;47.712;9.082;2023-04-30T08:36:03;97111.13;;;15.25;68.54
6668;BME280;3370;47.712;9.082;2023-04-30T08:38:29;97112.00;;;15.38;68.22
6668;BME280;3370;47.712;9.082;2023-04-30T08:41:12;97104.38;;;15.49;66.97
6668;BME280;3370;47.712;9.082;2023-04-30T08:43:39;97109.19;;;15.56;68.10
6668;BME280;3370;47.712;9.082;2023-04-30T08:46:05;97100.66;;;15.53;65.59
6668;BME280;3370;47.712;9.082;2023-04-30T08:48:32;97092.59;;;15.58;65.55
6668;BME280;3370;47.712;9.082;2023-04-30T08:51:02;97098.91;;;15.81;65.29
6668;BME280;3370;47.712;9.082;2023-04-30T08:53:35;97096.88;;;15.86;64.49
6668;BME280;3370;47.712;9.082;2023-04-30T08:56:03;97096.03;;;15.99;67.26
6668;BME280;3370;47.712;9.082;2023-04-30T08:58:29;97095.31;;;16.22;66.19
6668;BME280;3370;47.712;9.082;2023-04-30T09:00:58;97098.34;;;16.42;65.39
6668;BME280;3370;47.712;9.082;2023-04-30T09:03:24;97098.53;;;16.39;63.61
6668;BME280;3370;47.712;9.082;2023-04-30T09:05:50;97106.47;;;16.50;65.31
6668;BME280;3370;47.712;9.082;2023-04-30T09:08:39;97105.00;;;16.59;63.02
6668;BME280;3370;47.712;9.082;2023-04-30T09:13:50;97101.25;;;16.50;61.08
6668;BME280;3370;47.712;9.082;2023-04-30T09:16:24;97105.31;;;16.41;62.57
6668;BME280;3370;47.712;9.082;2023-04-30T09:18:50;97110.78;;;16.37;61.65
6668;BME280;3370;47.712;9.082;2023-04-30T09:21:16;97105.75;;;16.35;60.99
6668;BME280;3370;47.712;9.082;2023-04-30T09:24:03;97104.97;;;16.46;60.75
6668;BME280;3370;47.712;9.082;2023-04-30T09:26:34;97104.25;;;16.70;60.81
6668;BME280;3370;47.712;9.082;2023-04-30T09:29:01;97102.38;;;16.72;60.61
6668;BME280;3370;47.712;9.082;2023-04-30T09:31:33;97099.16;;;16.81;59.89
6668;BME280;3370;47.712;9.082;2023-04-30T09:33:59;97093.94;;;17.07;60.26
6668;BME280;3370;47.712;9.082;2023-04-30T09:36:25;97094.34;;;17.00;59.07
6668;BME280;3370;47.712;9.082;2023-04-30T09:38:52;97090.81;;;17.01;57.84
6668;BME280;3370;47.712;9.082;2023-04-30T09:41:29;97095.00;;;16.91;57.97
6668;BME280;3370;47.712;9.082;2023-04-30T09:43:56;97091.06;;;16.85;58.64
6668;BME280;3370;47.712;9.082;2023-04-30T09:46:30;97083.38;;;16.84;57.63
6668;BME280;3370;47.712;9.082;2023-04-30T09:48:58;97086.38;;;16.78;58.36
6668;BME280;3370;47.712;9.082;2023-04-30T09:51:24;97085.16;;;16.83;57.85
6668;BME280;3370;47.712;9.082;2023-04-30T09:53:52;97093.88;;;16.82;58.17
6668;BME280;3370;47.712;9.082;2023-04-30T09:56:21;97095.22;;;16.88;57.78
6668;BME280;3370;47.712;9.082;2023-04-30T09:58:54;97086.72;;;16.86;56.90
6668;BME280;3370;47.712;9.082;2023-04-30T10:01:24;97088.44;;;16.98;57.32
6668;BME280;3370;47.712;9.082;2023-04-30T10:03:53;97093.34;;;16.90;56.87
6668;BME280;3370;47.712;9.082;2023-04-30T10:06:20;97098.34;;;16.93;56.22
6668;BME280;3370;47.712;9.082;2023-04-30T10:08:56;97096.88;;;16.76;55.66
6668;BME280;3370;47.712;9.082;2023-04-30T10:11:27;97084.31;;;16.83;56.39
6668;BME280;3370;47.712;9.082;2023-04-30T10:14:12;97082.53;;;16.96;55.94
6668;BME280;3370;47.712;9.082;2023-04-30T10:17:19;97079.97;;;17.08;56.78
6668;BME280;3370;47.712;9.082;2023-04-30T10:19:49;97078.75;;;17.13;56.36
6668;BME280;3370;47.712;9.082;2023-04-30T10:22:17;97075.59;;;17.21;56.36
6668;BME280;3370;47.712;9.082;2023-04-30T10:24:44;97077.44;;;17.32;56.22
6668;BME280;3370;47.712;9.082;2023-04-30T10:27:11;97076.38;;;17.34;55.44
6668;BME280;3370;47.712;9.082;2023-04-30T10:29:37;97064.25;;;17.46;55.46
6668;BME280;3370;47.712;9.082;2023-04-30T10:32:03;97069.59;;;17.56;55.53
6668;BME280;3370;47.712;9.082;2023-04-30T10:37:46;97053.44;;;17.88;55.16
6668;BME280;3370;47.712;9.082;2023-04-30T10:40:14;97052.38;;;17.90;54.44
6668;BME280;3370;47.712;9.082;2023-04-30T10:42:48;97055.91;;;17.89;55.47
6668;BME280;3370;47.712;9.082;2023-04-30T10:45:15;97045.19;;;17.94;55.28
6668;BME280;3370;47.712;9.082;2023-04-30T10:47:42;97047.47;;;18.10;53.78
6668;BME280;3370;47.712;9.082;2023-04-30T10:50:10;97040.97;;;18.27;53.81
6668;BME280;3370;47.712;9.082;2023-04-30T10:52:37;97041.94;;;18.26;53.95
6668;BME280;3370;47.712;9.082;2023-04-30T10:55:08;97035.31;;;18.33;53.77
6668;BME280;3370;47.712;9.082;2023-04-30T10:57:42;97038.03;;;18.31;53.73
6668;BME280;3370;47.712;9.082;2023-04-30T11:02:45;97035.09;;;17.89;53.11
6668;BME280;3370;47.712;9.082;2023-04-30T11:05:17;97035.63;;;17.70;53.81
6668;BME280;3370;47.712;9.082;2023-04-30T11:07:47;97039.16;;;17.69;54.45
6668;BME280;3370;47.712;9.082;2023-04-30T11:10:14;97040.56;;;17.62;53.74
6668;BME280;3370;47.712;9.082;2023-04-30T11:12:47;97037.19;;;17.49;53.39
6668;BME280;3370;47.712;9.082;2023-04-30T11:15:17;97034.38;;;17.52;54.77
6668;BME280;3370;47.712;9.082;2023-04-30T11:17:46;97033.69;;;17.50;54.39
6668;BME280;3370;47.712;9.082;2023-04-30T11:20:18;97032.19;;;17.34;53.80
6668;BME280;3370;47.712;9.082;2023-04-30T11:22:44;97033.56;;;17.27;53.83
6668;BME280;3370;47.712;9.082;2023-04-30T11:25:11;97036.66;;;17.32;54.52
6668;BME280;3370;47.712;9.082;2023-04-30T11:27:41;97031.28;;;17.47;54.31
6668;BME280;3370;47.712;9.082;2023-04-30T11:30:15;97040.97;;;17.44;53.50
6668;BME280;3370;47.712;9.082;2023-04-30T11:32:45;97029.59;;;17.34;54.21
6668;BME280;3370;47.712;9.082;2023-04-30T11:35:13;97037.13;;;17.26;53.53
6668;BME280;3370;47.712;9.082;2023-04-30T11:37:44;97033.75;;;17.37;53.91
6668;BME280;3370;47.712;9.082;2023-04-30T11:40:13;97027.09;;;17.57;53.65
6668;BME280;3370;47.712;9.082;2023-04-30T11:42:43;97025.22;;;17.70;53.21
6668;BME280;3370;47.712;9.082;2023-04-30T11:45:11;97012.06;;;17.96;53.83
6668;BME280;3370;47.712;9.082;2023-04-30T11:50:09;97015.41;;;18.54;53.74
6668;BME280;3370;47.712;9.082;2023-04-30T11:52:37;97014.22;;;18.70;50.91
6668;BME280;3370;47.712;9.082;2023-04-30T11:55:14;97007.91;;;18.72;50.22
6668;BME280;3370;47.712;9.082;2023-04-30T11:57:43;97015.50;;;18.87;49.89
6668;BME280;3370;47.712;9.082;2023-04-30T12:00:21;97014.66;;;18.98;49.43
6668;BME280;3370;47.712;9.082;2023-04-30T12:02:48;97019.47;;;19.13;49.41
6668;BME280;3370;47.712;9.082;2023-04-30T12:05:16;97011.09;;;19.42;50.54
6668;BME280;3370;47.712;9.082;2023-04-30T12:07:50;97010.91;;;19.55;48.50
6668;BME280;3370;47.712;9.082;2023-04-30T12:10:18;96998.31;;;20.02;47.35
6668;BME280;3370;47.712;9.082;2023-04-30T12:12:46;97001.44;;;21.08;46.13
6668;BME280;3370;47.712;9.082;2023-04-30T12:15:16;96990.47;;;21.53;45.35
6668;BME280;3370;47.712;9.082;2023-04-30T12:17:44;96990.50;;;22.00;43.41
6668;BME280;3370;47.712;9.082;2023-04-30T12:20:12;96993.81;;;22.50;42.92
6668;BME280;3370;47.712;9.082;2023-04-30T12:22:41;96983.53;;;22.38;41.90
6668;BME280;3370;47.712;9.082;2023-04-30T12:25:12;97001.44;;;21.86;42.62
6668;BME280;3370;47.712;9.082;2023-04-30T12:27:40;96985.50;;;21.60;44.46
6668;BME280;3370;47.712;9.082;2023-04-30T12:30:08;96991.81;;;22.24;45.61
6668;BME280;3370;47.712;9.082;2023-04-30T12:32:42;96987.03;;;22.85;41.99
6668;BME280;3370;47.712;9.082;2023-04-30T12:35:17;96993.81;;;22.50;41.53
6668;BME280;3370;47.712;9.082;2023-04-30T12:37:47;96987.53;;;22.33;41.17
6668;BME280;3370;47.712;9.082;2023-04-30T12:40:15;96982.31;;;22.88;40.48
6668;BME280;3370;47.712;9.082;2023-04-30T12:42:42;96978.78;;;22.52;41.19
6668;BME280;3370;47.712;9.082;2023-04-30T12:45:09;96980.72;;;22.02;41.31
6668;BME280;3370;47.712;9.082;2023-04-30T12:47:40;96973.78;;;22.21;42.58
6668;BME280;3370;47.712;9.082;2023-04-30T12:50:12;96972.13;;;22.57;41.64
6668;BME280;3370;47.712;9.082;2023-04-30T12:52:39;96981.94;;;23.01;40.82
6668;BME280;3370;47.712;9.082;2023-04-30T12:55:19;96978.84;;;23.15;38.93
6668;BME280;3370;47.712;9.082;2023-04-30T12:58:03;96966.84;;;23.93;38.64
6668;BME280;3370;47.712;9.082;2023-04-30T13:00:48;96960.41;;;24.22;37.92
6668;BME280;3370;47.712;9.082;2023-04-30T13:03:19;96960.75;;;24.61;36.70
6668;BME280;3370;47.712;9.082;2023-04-30T13:05:51;96959.31;;;24.33;38.69
6668;BME280;3370;47.712;9.082;2023-04-30T13:08:18;96955.84;;;24.32;38.75
6668;BME280;3370;47.712;9.082;2023-04-30T13:10:47;96958.63;;;24.30;37.38
6668;BME280;3370;47.712;9.082;2023-04-30T13:13:16;96965.38;;;23.99;39.26
6668;BME280;3370;47.712;9.082;2023-04-30T13:15:42;96975.31;;;24.13;38.96
6668;BME280;3370;47.712;9.082;2023-04-30T13:18:08;96970.13;;;23.95;38.58
6668;BME280;3370;47.712;9.082;2023-04-30T13:20:38;96964.56;;;23.36;39.85
6668;BME280;3370;47.712;9.082;2023-04-30T13:23:05;96966.94;;;22.75;40.63
6668;BME280;3370;47.712;9.082;2023-04-30T13:25:34;96969.69;;;22.09;41.65
6668;BME280;3370;47.712;9.082;2023-04-30T13:28:01;96967.97;;;21.80;42.09
6668;BME280;3370;47.712;9.082;2023-04-30T13:30:27;96955.84;;;21.79;42.84
6668;BME280;3370;47.712;9.082;2023-04-30T13:32:53;96950.25;;;22.11;42.05
6668;BME280;3370;47.712;9.082;2023-04-30T13:35:20;96953.34;;;22.34;42.84
6668;BME280;3370;47.712;9.082;2023-04-30T13:37:46;96948.72;;;22.28;42.25
6668;BME280;3370;47.712;9.082;2023-04-30T13:40:18;96946.22;;;22.17;42.03
6668;BME280;3370;47.712;9.082;2023-04-30T13:42:45;96950.72;;;21.97;42.31
6668;BME280;3370;47.712;9.082;2023-04-30T13:45:11;96947.47;;;21.75;42.98
6668;BME280;3370;47.712;9.082;2023-04-30T13:47:37;96952.03;;;21.44;42.49
6668;BME280;3370;47.712;9.082;2023-04-30T13:50:05;96952.47;;;21.20;43.58